sensor_id;sensor_type;location;lat;lon;timestamp;P1;durP1;ratioP1;P2;durP2;ratioP2
65045;SDS011;54657;52.022;5.534;2023-07-13T00:00:23;7.95;;;2.80;;
65045;SDS011;54657;52.022;5.534;2023-07-13T00:02:49;4.88;;;1.83;;
65045;SDS011;54657;52.022;5.534;2023-07-13T00:05:14;6.68;;;1.55;;
65045;SDS011;54657;52.022;5.534;2023-07-13T00:07:41;5.38;;;1.73;;
65045;SDS011;54657;52.022;5.534;2023-07-13T00:10:07;5.85;;;1.52;;
65045;SDS011;54657;52.022;5.534;2023-07-13T00:12:36;5.28;;;1.38;;
65045;SDS011;54657;52.022;5.534;2023-07-13T00:15:05;8.55;;;1.83;;
65045;SDS011;54657;52.022;5.534;2023-07-13T00:17:52;5.35;;;1.60;;
65045;SDS011;54657;52.022;5.534;2023-07-13T00:20:20;7.07;;;1.73;;
65045;SDS011;54657;52.022;5.534;2023-07-13T00:22:47;3.65;;;1.15;;
65045;SDS011;54657;52.022;5.534;2023-07-13T00:25:13;5.32;;;1.40;;
65045;SDS011;54657;52.022;5.534;2023-07-13T00:27:39;5.00;;;1.50;;
65045;SDS011;54657;52.022;5.534;2023-07-13T00:30:05;3.33;;;1.40;;
65045;SDS011;54657;52.022;5.534;2023-07-13T00:32:31;4.70;;;1.85;;
65045;SDS011;54657;52.022;5.534;2023-07-13T00:34:57;3.95;;;1.20;;
65045;SDS011;54657;52.022;5.534;2023-07-13T00:37:25;3.53;;;1.52;;
65045;SDS011;54657;52.022;5.534;2023-07-13T00:39:50;4.97;;;1.52;;
65045;SDS011;54657;52.022;5.534;2023-07-13T00:42:16;5.40;;;1.50;;
65045;SDS011;54657;52.022;5.534;2023-07-13T00:45:00;5.95;;;2.50;;
65045;SDS011;54657;52.022;5.534;2023-07-13T00:47:31;8.68;;;2.00;;
65045;SDS011;54657;52.022;5.534;2023-07-13T00:49:56;6.65;;;1.67;;
65045;SDS011;54657;52.022;5.534;2023-07-13T00:52:22;7.38;;;1.88;;
65045;SDS011;54657;52.022;5.534;2023-07-13T00:54:48;4.97;;;1.55;;
65045;SDS011;54657;52.022;5.534;2023-07-13T00:57:16;7.13;;;1.83;;
65045;SDS011;54657;52.022;5.534;2023-07-13T00:59:45;2.88;;;1.40;;
65045;SDS011;54657;52.022;5.534;2023-07-13T01:02:15;4.10;;;1.55;;
65045;SDS011;54657;52.022;5.534;2023-07-13T01:04:41;4.63;;;1.67;;
65045;SDS011;54657;52.022;5.534;2023-07-13T01:07:09;5.50;;;1.63;;
65045;SDS011;54657;52.022;5.534;2023-07-13T01:09:35;3.25;;;1.20;;
65045;SDS011;54657;52.022;5.534;2023-07-13T01:12:01;3.35;;;1.38;;
65045;SDS011;54657;52.022;5.534;2023-07-13T01:14:28;3.58;;;1.65;;
65045;SDS011;54657;52.022;5.534;2023-07-13T01:16:54;6.47;;;2.00;;
65045;SDS011;54657;52.022;5.534;2023-07-13T01:19:36;5.20;;;1.67;;
65045;SDS011;54657;52.022;5.534;2023-07-13T01:24:40;4.35;;;1.55;;
65045;SDS011;54657;52.022;5.534;2023-07-13T01:27:08;5.15;;;1.70;;
65045;SDS011;54657;52.022;5.534;2023-07-13T01:29:36;6.13;;;1.73;;
65045;SDS011;54657;52.022;5.534;2023-07-13T01:32:20;5.68;;;1.80;;
65045;SDS011;54657;52.022;5.534;2023-07-13T01:34:50;4.13;;;1.27;;
65045;SDS011;54657;52.022;5.534;2023-07-13T01:37:19;4.75;;;1.58;;
65045;SDS011;54657;52.022;5.534;2023-07-13T01:39:46;4.70;;;1.60;;
65045;SDS011;54657;52.022;5.534;2023-07-13T01:42:12;3.75;;;1.55;;
65045;SDS011;54657;52.022;5.534;2023-07-13T01:44:38;4.70;;;1.40;;
65045;SDS011;54657;52.022;5.534;2023-07-13T01:47:04;5.75;;;1.65;;
65045;SDS011;54657;52.022;5.534;2023-07-13T01:49:30;6.85;;;1.83;;
65045;SDS011;54657;52.022;5.534;2023-07-13T01:51:55;5.40;;;1.83;;
65045;SDS011;54657;52.022;5.534;2023-07-13T01:54:21;6.75;;;1.70;;
65045;SDS011;54657;52.022;5.534;2023-07-13T01:56:46;5.90;;;1.88;;
65045;SDS011;54657;52.022;5.534;2023-07-13T01:59:12;4.15;;;1.60;;
65045;SDS011;54657;52.022;5.534;2023-07-13T02:01:38;3.15;;;1.48;;
65045;SDS011;54657;52.022;5.534;2023-07-13T02:04:03;5.40;;;1.80;;
65045;SDS011;54657;52.022;5.534;2023-07-13T02:06:29;2.05;;;1.63;;
65045;SDS011;54657;52.022;5.534;2023-07-13T02:08:55;5.78;;;1.65;;
65045;SDS011;54657;52.022;5.534;2023-07-13T02:11:20;5.85;;;1.70;;
65045;SDS011;54657;52.022;5.534;2023-07-13T02:13:46;7.50;;;1.80;;
65045;SDS011;54657;52.022;5.534;2023-07-13T02:16:12;5.82;;;1.67;;
65045;SDS011;54657;52.022;5.534;2023-07-13T02:18:38;6.68;;;1.50;;
65045;SDS011;54657;52.022;5.534;2023-07-13T02:21:03;5.75;;;1.70;;
65045;SDS011;54657;52.022;5.534;2023-07-13T02:23:29;3.25;;;1.35;;
65045;SDS011;54657;52.022;5.534;2023-07-13T02:25:55;5.10;;;1.77;;
65045;SDS011;54657;52.022;5.534;2023-07-13T02:28:21;6.43;;;1.55;;
65045;SDS011;54657;52.022;5.534;2023-07-13T02:30:47;3.63;;;1.73;;
65045;SDS011;54657;52.022;5.534;2023-07-13T02:33:13;7.78;;;1.80;;
65045;SDS011;54657;52.022;5.534;2023-07-13T02:35:38;6.78;;;1.73;;
65045;SDS011;54657;52.022;5.534;2023-07-13T02:38:04;7.18;;;1.80;;
65045;SDS011;54657;52.022;5.534;2023-07-13T02:40:30;5.75;;;1.90;;
65045;SDS011;54657;52.022;5.534;2023-07-13T02:42:58;7.30;;;1.98;;
65045;SDS011;54657;52.022;5.534;2023-07-13T02:45:24;5.80;;;1.98;;
65045;SDS011;54657;52.022;5.534;2023-07-13T02:47:50;6.13;;;2.20;;
65045;SDS011;54657;52.022;5.534;2023-07-13T02:50:16;9.05;;;2.10;;
65045;SDS011;54657;52.022;5.534;2023-07-13T02:52:41;5.45;;;1.83;;
65045;SDS011;54657;52.022;5.534;2023-07-13T02:55:07;6.18;;;1.70;;
65045;SDS011;54657;52.022;5.534;2023-07-13T02:57:33;4.65;;;1.58;;
65045;SDS011;54657;52.022;5.534;2023-07-13T02:59:59;8.05;;;2.13;;
65045;SDS011;54657;52.022;5.534;2023-07-13T03:02:25;5.93;;;2.30;;
65045;SDS011;54657;52.022;5.534;2023-07-13T03:04:53;4.20;;;1.90;;
65045;SDS011;54657;52.022;5.534;2023-07-13T03:07:19;9.80;;;2.15;;
65045;SDS011;54657;52.022;5.534;2023-07-13T03:09:45;4.78;;;2.03;;
65045;SDS011;54657;52.022;5.534;2023-07-13T03:12:11;10.40;;;2.40;;
65045;SDS011;54657;52.022;5.534;2023-07-13T03:14:36;4.90;;;1.90;;
65045;SDS011;54657;52.022;5.534;2023-07-13T03:17:02;7.63;;;2.63;;
65045;SDS011;54657;52.022;5.534;2023-07-13T03:19:28;8.73;;;2.25;;
65045;SDS011;54657;52.022;5.534;2023-07-13T03:21:53;5.45;;;2.13;;
65045;SDS011;54657;52.022;5.534;2023-07-13T03:24:19;5.65;;;2.25;;
65045;SDS011;54657;52.022;5.534;2023-07-13T03:26:45;9.55;;;2.70;;
65045;SDS011;54657;52.022;5.534;2023-07-13T03:29:11;7.05;;;2.80;;
65045;SDS011;54657;52.022;5.534;2023-07-13T03:31:36;8.95;;;2.58;;
65045;SDS011;54657;52.022;5.534;2023-07-13T03:34:03;7.70;;;2.08;;
65045;SDS011;54657;52.022;5.534;2023-07-13T03:36:29;9.45;;;2.22;;
65045;SDS011;54657;52.022;5.534;2023-07-13T03:38:57;9.45;;;2.58;;
65045;SDS011;54657;52.022;5.534;2023-07-13T03:41:25;8.30;;;2.72;;
65045;SDS011;54657;52.022;5.534;2023-07-13T03:43:52;10.70;;;2.58;;
65045;SDS011;54657;52.022;5.534;2023-07-13T03:46:18;7.88;;;2.10;;
65045;SDS011;54657;52.022;5.534;2023-07-13T03:48:44;7.38;;;2.25;;
65045;SDS011;54657;52.022;5.534;2023-07-13T03:51:12;8.63;;;2.60;;
65045;SDS011;54657;52.022;5.534;2023-07-13T03:53:40;11.80;;;2.80;;
65045;SDS011;54657;52.022;5.534;2023-07-13T03:56:07;7.70;;;2.40;;
65045;SDS011;54657;52.022;5.534;2023-07-13T03:58:34;8.27;;;2.30;;
65045;SDS011;54657;52.022;5.534;2023-07-13T04:01:02;6.50;;;2.20;;
65045;SDS011;54657;52.022;5.534;2023-07-13T04:03:28;12.32;;;2.90;;
65045;SDS011;54657;52.022;5.534;2023-07-13T04:05:57;9.32;;;2.70;;
65045;SDS011;54657;52.022;5.534;2023-07-13T04:08:28;7.97;;;2.50;;
65045;SDS011;54657;52.022;5.534;2023-07-13T04:10:56;5.97;;;2.30;;
65045;SDS011;54657;52.022;5.534;2023-07-13T04:13:22;9.77;;;2.75;;
65045;SDS011;54657;52.022;5.534;2023-07-13T04:15:48;8.90;;;2.55;;
65045;SDS011;54657;52.022;5.534;2023-07-13T04:18:14;8.02;;;2.72;;
65045;SDS011;54657;52.022;5.534;2023-07-13T04:20:39;7.85;;;2.22;;
65045;SDS011;54657;52.022;5.534;2023-07-13T04:23:05;9.82;;;2.50;;
65045;SDS011;54657;52.022;5.534;2023-07-13T04:25:31;8.55;;;3.22;;
65045;SDS011;54657;52.022;5.534;2023-07-13T04:27:56;6.50;;;2.60;;
65045;SDS011;54657;52.022;5.534;2023-07-13T04:30:22;7.15;;;2.83;;
65045;SDS011;54657;52.022;5.534;2023-07-13T04:32:50;9.85;;;2.97;;
65045;SDS011;54657;52.022;5.534;2023-07-13T04:35:17;10.55;;;3.72;;
65045;SDS011;54657;52.022;5.534;2023-07-13T04:37:47;12.25;;;3.22;;
65045;SDS011;54657;52.022;5.534;2023-07-13T04:40:15;9.65;;;2.92;;
65045;SDS011;54657;52.022;5.534;2023-07-13T04:42:41;10.20;;;3.50;;
65045;SDS011;54657;52.022;5.534;2023-07-13T04:45:07;10.88;;;3.38;;
65045;SDS011;54657;52.022;5.534;2023-07-13T04:47:33;9.00;;;3.10;;
65045;SDS011;54657;52.022;5.534;2023-07-13T04:49:58;9.52;;;2.75;;
65045;SDS011;54657;52.022;5.534;2023-07-13T04:52:24;9.90;;;2.85;;
65045;SDS011;54657;52.022;5.534;2023-07-13T04:54:50;12.00;;;3.20;;
65045;SDS011;54657;52.022;5.534;2023-07-13T04:57:15;11.30;;;3.35;;
65045;SDS011;54657;52.022;5.534;2023-07-13T04:59:41;15.70;;;3.53;;
65045;SDS011;54657;52.022;5.534;2023-07-13T05:02:07;11.60;;;3.58;;
65045;SDS011;54657;52.022;5.534;2023-07-13T05:04:32;9.02;;;3.28;;
65045;SDS011;54657;52.022;5.534;2023-07-13T05:06:58;9.02;;;3.13;;
65045;SDS011;54657;52.022;5.534;2023-07-13T05:09:24;12.00;;;3.70;;
65045;SDS011;54657;52.022;5.534;2023-07-13T05:11:50;9.18;;;3.70;;
65045;SDS011;54657;52.022;5.534;2023-07-13T05:14:16;11.48;;;3.92;;
65045;SDS011;54657;52.022;5.534;2023-07-13T05:16:41;10.32;;;4.03;;
65045;SDS011;54657;52.022;5.534;2023-07-13T05:19:07;10.38;;;3.67;;
65045;SDS011;54657;52.022;5.534;2023-07-13T05:21:33;12.02;;;3.95;;
65045;SDS011;54657;52.022;5.534;2023-07-13T05:23:59;14.18;;;4.18;;
65045;SDS011;54657;52.022;5.534;2023-07-13T05:26:25;9.85;;;4.10;;
65045;SDS011;54657;52.022;5.534;2023-07-13T05:28:50;16.20;;;4.22;;
65045;SDS011;54657;52.022;5.534;2023-07-13T05:31:16;15.55;;;4.20;;
65045;SDS011;54657;52.022;5.534;2023-07-13T05:33:42;13.48;;;4.10;;
65045;SDS011;54657;52.022;5.534;2023-07-13T05:36:07;15.02;;;4.88;;
65045;SDS011;54657;52.022;5.534;2023-07-13T05:38:33;11.43;;;4.45;;
65045;SDS011;54657;52.022;5.534;2023-07-13T05:40:59;13.63;;;4.70;;
65045;SDS011;54657;52.022;5.534;2023-07-13T05:43:25;9.80;;;4.93;;
65045;SDS011;54657;52.022;5.534;2023-07-13T05:45:55;12.98;;;4.60;;
65045;SDS011;54657;52.022;5.534;2023-07-13T05:48:21;12.55;;;4.72;;
65045;SDS011;54657;52.022;5.534;2023-07-13T05:50:47;13.50;;;5.05;;
65045;SDS011;54657;52.022;5.534;2023-07-13T05:53:14;14.15;;;5.05;;
65045;SDS011;54657;52.022;5.534;2023-07-13T05:55:43;15.48;;;5.53;;
65045;SDS011;54657;52.022;5.534;2023-07-13T05:58:12;10.38;;;4.95;;
65045;SDS011;54657;52.022;5.534;2023-07-13T06:00:39;17.63;;;5.43;;
65045;SDS011;54657;52.022;5.534;2023-07-13T06:03:05;13.57;;;5.93;;
65045;SDS011;54657;52.022;5.534;2023-07-13T06:05:31;17.13;;;6.03;;
65045;SDS011;54657;52.022;5.534;2023-07-13T06:07:58;16.40;;;6.05;;
65045;SDS011;54657;52.022;5.534;2023-07-13T06:10:24;14.10;;;5.70;;
65045;SDS011;54657;52.022;5.534;2023-07-13T06:12:50;20.42;;;6.35;;
65045;SDS011;54657;52.022;5.534;2023-07-13T06:15:16;20.83;;;6.90;;
65045;SDS011;54657;52.022;5.534;2023-07-13T06:17:42;11.93;;;5.90;;
65045;SDS011;54657;52.022;5.534;2023-07-13T06:20:07;14.85;;;6.75;;
65045;SDS011;54657;52.022;5.534;2023-07-13T06:22:33;16.50;;;7.40;;
65045;SDS011;54657;52.022;5.534;2023-07-13T06:24:59;18.23;;;7.82;;
65045;SDS011;54657;52.022;5.534;2023-07-13T06:27:24;17.02;;;7.38;;
65045;SDS011;54657;52.022;5.534;2023-07-13T06:29:50;15.30;;;7.32;;
65045;SDS011;54657;52.022;5.534;2023-07-13T06:32:16;14.52;;;8.00;;
65045;SDS011;54657;52.022;5.534;2023-07-13T06:34:41;17.48;;;8.38;;
65045;SDS011;54657;52.022;5.534;2023-07-13T06:37:07;17.58;;;7.53;;
65045;SDS011;54657;52.022;5.534;2023-07-13T06:39:33;21.70;;;7.97;;
65045;SDS011;54657;52.022;5.534;2023-07-13T06:41:59;16.45;;;8.50;;
65045;SDS011;54657;52.022;5.534;2023-07-13T06:44:24;14.48;;;8.18;;
65045;SDS011;54657;52.022;5.534;2023-07-13T06:46:50;14.52;;;8.05;;
65045;SDS011;54657;52.022;5.534;2023-07-13T06:49:16;17.52;;;8.25;;
65045;SDS011;54657;52.022;5.534;2023-07-13T06:51:41;14.60;;;8.98;;
65045;SDS011;54657;52.022;5.534;2023-07-13T06:54:07;17.73;;;9.02;;
65045;SDS011;54657;52.022;5.534;2023-07-13T06:56:33;15.88;;;8.07;;
65045;SDS011;54657;52.022;5.534;2023-07-13T06:58:59;20.48;;;8.07;;
65045;SDS011;54657;52.022;5.534;2023-07-13T07:01:25;17.92;;;8.20;;
65045;SDS011;54657;52.022;5.534;2023-07-13T07:03:50;16.63;;;8.32;;
65045;SDS011;54657;52.022;5.534;2023-07-13T07:06:18;13.85;;;8.00;;
65045;SDS011;54657;52.022;5.534;2023-07-13T07:08:45;13.60;;;7.32;;
65045;SDS011;54657;52.022;5.534;2023-07-13T07:11:12;15.30;;;7.82;;
65045;SDS011;54657;52.022;5.534;2023-07-13T07:13:39;15.05;;;7.93;;
65045;SDS011;54657;52.022;5.534;2023-07-13T07:16:04;15.32;;;8.18;;
65045;SDS011;54657;52.022;5.534;2023-07-13T07:18:30;15.30;;;7.72;;
65045;SDS011;54657;52.022;5.534;2023-07-13T07:20:56;14.75;;;8.05;;
65045;SDS011;54657;52.022;5.534;2023-07-13T07:23:22;14.13;;;7.18;;
65045;SDS011;54657;52.022;5.534;2023-07-13T07:25:47;17.95;;;8.23;;
65045;SDS011;54657;52.022;5.534;2023-07-13T07:28:15;17.67;;;8.52;;
65045;SDS011;54657;52.022;5.534;2023-07-13T07:30:45;16.88;;;7.55;;
65045;SDS011;54657;52.022;5.534;2023-07-13T07:33:11;15.25;;;7.97;;
65045;SDS011;54657;52.022;5.534;2023-07-13T07:35:37;16.50;;;8.38;;
65045;SDS011;54657;52.022;5.534;2023-07-13T07:38:03;15.13;;;8.18;;
65045;SDS011;54657;52.022;5.534;2023-07-13T07:40:29;17.02;;;7.93;;
65045;SDS011;54657;52.022;5.534;2023-07-13T07:42:55;12.50;;;7.40;;
65045;SDS011;54657;52.022;5.534;2023-07-13T07:45:21;13.02;;;7.47;;
65045;SDS011;54657;52.022;5.534;2023-07-13T07:47:46;18.05;;;8.05;;
65045;SDS011;54657;52.022;5.534;2023-07-13T07:50:12;17.67;;;8.38;;
65045;SDS011;54657;52.022;5.534;2023-07-13T07:52:38;15.35;;;7.97;;
65045;SDS011;54657;52.022;5.534;2023-07-13T07:55:04;14.10;;;7.57;;
65045;SDS011;54657;52.022;5.534;2023-07-13T07:57:31;15.82;;;7.60;;
65045;SDS011;54657;52.022;5.534;2023-07-13T07:59:57;13.48;;;7.35;;
65045;SDS011;54657;52.022;5.534;2023-07-13T08:02:24;12.18;;;6.93;;
65045;SDS011;54657;52.022;5.534;2023-07-13T08:04:49;16.52;;;8.27;;
65045;SDS011;54657;52.022;5.534;2023-07-13T08:07:15;15.48;;;7.32;;
65045;SDS011;54657;52.022;5.534;2023-07-13T08:09:41;16.52;;;7.70;;
65045;SDS011;54657;52.022;5.534;2023-07-13T08:12:07;17.10;;;7.35;;
65045;SDS011;54657;52.022;5.534;2023-07-13T08:14:33;15.27;;;7.07;;
65045;SDS011;54657;52.022;5.534;2023-07-13T08:16:58;16.05;;;6.60;;
65045;SDS011;54657;52.022;5.534;2023-07-13T08:19:24;13.77;;;6.63;;
65045;SDS011;54657;52.022;5.534;2023-07-13T08:21:50;13.40;;;5.95;;
65045;SDS011;54657;52.022;5.534;2023-07-13T08:24:15;13.65;;;6.45;;
65045;SDS011;54657;52.022;5.534;2023-07-13T08:26:43;15.10;;;7.38;;
65045;SDS011;54657;52.022;5.534;2023-07-13T08:29:10;12.48;;;6.65;;
65045;SDS011;54657;52.022;5.534;2023-07-13T08:31:36;20.60;;;7.35;;
65045;SDS011;54657;52.022;5.534;2023-07-13T08:34:01;13.38;;;6.28;;
65045;SDS011;54657;52.022;5.534;2023-07-13T08:36:28;11.85;;;5.68;;
65045;SDS011;54657;52.022;5.534;2023-07-13T08:38:54;11.57;;;5.13;;
65045;SDS011;54657;52.022;5.534;2023-07-13T08:41:20;12.77;;;4.55;;
65045;SDS011;54657;52.022;5.534;2023-07-13T08:43:51;13.05;;;4.50;;
65045;SDS011;54657;52.022;5.534;2023-07-13T08:46:24;10.18;;;3.97;;
65045;SDS011;54657;52.022;5.534;2023-07-13T08:48:56;7.65;;;3.47;;
65045;SDS011;54657;52.022;5.534;2023-07-13T08:51:57;5.65;;;2.83;;
65045;SDS011;54657;52.022;5.534;2023-07-13T08:56:49;7.25;;;2.30;;
65045;SDS011;54657;52.022;5.534;2023-07-13T08:59:19;4.45;;;2.63;;
65045;SDS011;54657;52.022;5.534;2023-07-13T09:04:16;7.90;;;2.30;;
65045;SDS011;54657;52.022;5.534;2023-07-13T09:07:07;7.28;;;2.50;;
65045;SDS011;54657;52.022;5.534;2023-07-13T09:20:55;5.80;;;2.10;;
65045;SDS011;54657;52.022;5.534;2023-07-13T09:23:29;4.45;;;2.00;;
65045;SDS011;54657;52.022;5.534;2023-07-13T09:26:02;4.22;;;1.95;;
65045;SDS011;54657;52.022;5.534;2023-07-13T09:29:11;3.22;;;1.60;;
65045;SDS011;54657;52.022;5.534;2023-07-13T09:31:52;3.85;;;1.92;;
65045;SDS011;54657;52.022;5.534;2023-07-13T09:34:20;3.80;;;2.13;;
65045;SDS011;54657;52.022;5.534;2023-07-13T09:36:46;6.20;;;1.98;;
65045;SDS011;54657;52.022;5.534;2023-07-13T09:39:21;4.95;;;2.35;;
65045;SDS011;54657;52.022;5.534;2023-07-13T09:42:03;5.00;;;2.00;;
65045;SDS011;54657;52.022;5.534;2023-07-13T09:44:51;5.47;;;2.50;;
65045;SDS011;54657;52.022;5.534;2023-07-13T09:47:29;7.30;;;2.40;;
65045;SDS011;54657;52.022;5.534;2023-07-13T09:52:23;7.57;;;3.25;;
65045;SDS011;54657;52.022;5.534;2023-07-13T09:54:52;6.93;;;3.25;;
65045;SDS011;54657;52.022;5.534;2023-07-13T09:57:24;7.40;;;2.90;;
65045;SDS011;54657;52.022;5.534;2023-07-13T09:59:52;5.80;;;3.00;;
65045;SDS011;54657;52.022;5.534;2023-07-13T10:07:23;6.80;;;3.15;;
65045;SDS011;54657;52.022;5.534;2023-07-13T10:09:53;6.20;;;2.80;;
65045;SDS011;54657;52.022;5.534;2023-07-13T10:12:20;6.75;;;2.90;;
65045;SDS011;54657;52.022;5.534;2023-07-13T10:14:48;7.40;;;3.22;;
65045;SDS011;54657;52.022;5.534;2023-07-13T10:17:19;9.35;;;3.20;;
65045;SDS011;54657;52.022;5.534;2023-07-13T10:19:55;7.50;;;3.10;;
65045;SDS011;54657;52.022;5.534;2023-07-13T10:25:07;5.80;;;2.55;;
65045;SDS011;54657;52.022;5.534;2023-07-13T10:27:43;6.65;;;2.42;;
65045;SDS011;54657;52.022;5.534;2023-07-13T10:30:13;4.85;;;2.25;;
65045;SDS011;54657;52.022;5.534;2023-07-13T10:32:44;5.38;;;2.53;;
65045;SDS011;54657;52.022;5.534;2023-07-13T10:35:11;4.68;;;2.22;;
65045;SDS011;54657;52.022;5.534;2023-07-13T10:38:00;3.22;;;1.92;;
65045;SDS011;54657;52.022;5.534;2023-07-13T10:40:40;3.22;;;1.70;;
65045;SDS011;54657;52.022;5.534;2023-07-13T10:43:23;4.13;;;2.00;;
65045;SDS011;54657;52.022;5.534;2023-07-13T10:45:53;5.22;;;1.98;;
65045;SDS011;54657;52.022;5.534;2023-07-13T10:48:19;4.00;;;1.92;;
65045;SDS011;54657;52.022;5.534;2023-07-13T10:50:48;4.72;;;2.00;;
65045;SDS011;54657;52.022;5.534;2023-07-13T10:53:22;4.97;;;2.15;;
65045;SDS011;54657;52.022;5.534;2023-07-13T10:56:01;4.93;;;2.08;;
65045;SDS011;54657;52.022;5.534;2023-07-13T10:58:39;3.28;;;1.85;;
65045;SDS011;54657;52.022;5.534;2023-07-13T11:01:16;5.30;;;2.25;;
65045;SDS011;54657;52.022;5.534;2023-07-13T11:08:55;5.35;;;2.70;;
65045;SDS011;54657;52.022;5.534;2023-07-13T11:18:52;5.55;;;2.25;;
65045;SDS011;54657;52.022;5.534;2023-07-13T11:22:01;3.03;;;2.00;;
65045;SDS011;54657;52.022;5.534;2023-07-13T11:24:28;4.10;;;2.30;;
65045;SDS011;54657;52.022;5.534;2023-07-13T11:28:03;3.28;;;2.10;;
65045;SDS011;54657;52.022;5.534;2023-07-13T11:32:51;4.38;;;2.30;;
65045;SDS011;54657;52.022;5.534;2023-07-13T11:35:35;3.20;;;2.00;;
65045;SDS011;54657;52.022;5.534;2023-07-13T11:38:09;6.40;;;2.42;;
65045;SDS011;54657;52.022;5.534;2023-07-13T11:40:41;5.30;;;2.10;;
65045;SDS011;54657;52.022;5.534;2023-07-13T11:43:11;4.03;;;2.30;;
65045;SDS011;54657;52.022;5.534;2023-07-13T11:45:39;5.13;;;2.28;;
65045;SDS011;54657;52.022;5.534;2023-07-13T11:48:05;5.38;;;2.60;;
65045;SDS011;54657;52.022;5.534;2023-07-13T11:50:42;4.68;;;2.40;;
65045;SDS011;54657;52.022;5.534;2023-07-13T11:53:16;5.55;;;2.38;;
65045;SDS011;54657;52.022;5.534;2023-07-13T11:55:42;6.07;;;2.40;;
65045;SDS011;54657;52.022;5.534;2023-07-13T11:58:08;4.50;;;2.45;;
65045;SDS011;54657;52.022;5.534;2023-07-13T12:00:36;4.80;;;2.47;;
65045;SDS011;54657;52.022;5.534;2023-07-13T12:03:03;6.88;;;2.70;;
65045;SDS011;54657;52.022;5.534;2023-07-13T12:05:30;4.63;;;2.60;;
65045;SDS011;54657;52.022;5.534;2023-07-13T12:07:57;4.05;;;2.30;;
65045;SDS011;54657;52.022;5.534;2023-07-13T12:10:24;4.45;;;2.00;;
65045;SDS011;54657;52.022;5.534;2023-07-13T12:12:58;4.13;;;1.95;;
65045;SDS011;54657;52.022;5.534;2023-07-13T12:18:00;4.32;;;2.20;;
65045;SDS011;54657;52.022;5.534;2023-07-13T12:20:35;2.88;;;2.08;;
65045;SDS011;54657;52.022;5.534;2023-07-13T12:23:11;3.58;;;2.10;;
65045;SDS011;54657;52.022;5.534;2023-07-13T12:25:50;3.65;;;2.03;;
65045;SDS011;54657;52.022;5.534;2023-07-13T12:28:20;6.13;;;2.20;;
65045;SDS011;54657;52.022;5.534;2023-07-13T12:30:53;5.65;;;2.65;;
65045;SDS011;54657;52.022;5.534;2023-07-13T12:33:23;3.63;;;2.10;;
65045;SDS011;54657;52.022;5.534;2023-07-13T12:35:53;5.15;;;2.65;;
65045;SDS011;54657;52.022;5.534;2023-07-13T12:38:19;3.33;;;2.15;;
65045;SDS011;54657;52.022;5.534;2023-07-13T12:40:50;5.63;;;2.50;;
65045;SDS011;54657;52.022;5.534;2023-07-13T12:43:17;2.30;;;2.05;;
65045;SDS011;54657;52.022;5.534;2023-07-13T12:48:21;4.10;;;2.33;;
65045;SDS011;54657;52.022;5.534;2023-07-13T12:50:47;2.40;;;2.08;;
65045;SDS011;54657;52.022;5.534;2023-07-13T12:53:38;3.80;;;2.28;;
65045;SDS011;54657;52.022;5.534;2023-07-13T12:56:04;3.17;;;1.92;;
65045;SDS011;54657;52.022;5.534;2023-07-13T12:58:37;2.00;;;1.80;;
65045;SDS011;54657;52.022;5.534;2023-07-13T13:01:10;3.28;;;2.08;;
65045;SDS011;54657;52.022;5.534;2023-07-13T13:03:39;4.15;;;1.88;;
65045;SDS011;54657;52.022;5.534;2023-07-13T13:08:47;4.03;;;2.10;;
65045;SDS011;54657;52.022;5.534;2023-07-13T13:11:18;3.78;;;1.85;;
65045;SDS011;54657;52.022;5.534;2023-07-13T13:13:45;7.38;;;2.33;;
65045;SDS011;54657;52.022;5.534;2023-07-13T13:16:19;2.67;;;1.80;;
65045;SDS011;54657;52.022;5.534;2023-07-13T13:18:47;2.78;;;1.88;;
65045;SDS011;54657;52.022;5.534;2023-07-13T13:21:18;2.60;;;2.20;;
65045;SDS011;54657;52.022;5.534;2023-07-13T13:23:44;2.20;;;1.90;;
65045;SDS011;54657;52.022;5.534;2023-07-13T13:26:11;3.35;;;1.90;;
65045;SDS011;54657;52.022;5.534;2023-07-13T13:28:39;3.80;;;1.90;;
65045;SDS011;54657;52.022;5.534;2023-07-13T13:31:07;4.45;;;2.20;;
65045;SDS011;54657;52.022;5.534;2023-07-13T13:33:37;8.95;;;2.08;;
65045;SDS011;54657;52.022;5.534;2023-07-13T13:36:12;4.28;;;2.00;;
65045;SDS011;54657;52.022;5.534;2023-07-13T13:38:42;3.17;;;1.80;;
65045;SDS011;54657;52.022;5.534;2023-07-13T13:41:09;2.75;;;1.98;;
65045;SDS011;54657;52.022;5.534;2023-07-13T13:43:39;2.38;;;1.98;;
65045;SDS011;54657;52.022;5.534;2023-07-13T13:46:14;3.10;;;1.90;;
65045;SDS011;54657;52.022;5.534;2023-07-13T13:48:55;2.28;;;1.80;;
65045;SDS011;54657;52.022;5.534;2023-07-13T13:51:22;2.25;;;1.80;;
65045;SDS011;54657;52.022;5.534;2023-07-13T13:53:49;2.72;;;1.88;;
65045;SDS011;54657;52.022;5.534;2023-07-13T13:56:15;3.75;;;1.83;;
65045;SDS011;54657;52.022;5.534;2023-07-13T13:58:43;3.28;;;2.00;;
65045;SDS011;54657;52.022;5.534;2023-07-13T14:01:20;2.22;;;1.80;;
65045;SDS011;54657;52.022;5.534;2023-07-13T14:03:47;3.38;;;2.17;;
65045;SDS011;54657;52.022;5.534;2023-07-13T14:06:18;3.17;;;2.08;;
65045;SDS011;54657;52.022;5.534;2023-07-13T14:08:45;5.47;;;1.90;;
65045;SDS011;54657;52.022;5.534;2023-07-13T14:11:16;2.22;;;2.03;;
65045;SDS011;54657;52.022;5.534;2023-07-13T14:13:48;3.42;;;1.95;;
65045;SDS011;54657;52.022;5.534;2023-07-13T14:16:21;2.30;;;2.00;;
65045;SDS011;54657;52.022;5.534;2023-07-13T14:18:52;3.33;;;2.20;;
65045;SDS011;54657;52.022;5.534;2023-07-13T14:21:20;5.80;;;2.13;;
65045;SDS011;54657;52.022;5.534;2023-07-13T14:23:47;2.28;;;1.80;;
65045;SDS011;54657;52.022;5.534;2023-07-13T14:26:14;2.55;;;1.92;;
65045;SDS011;54657;52.022;5.534;2023-07-13T14:28:43;3.15;;;2.10;;
65045;SDS011;54657;52.022;5.534;2023-07-13T14:31:11;5.03;;;2.20;;
65045;SDS011;54657;52.022;5.534;2023-07-13T14:33:38;5.50;;;2.22;;
65045;SDS011;54657;52.022;5.534;2023-07-13T14:39:19;3.20;;;1.88;;
65045;SDS011;54657;52.022;5.534;2023-07-13T14:41:49;3.83;;;1.92;;
65045;SDS011;54657;52.022;5.534;2023-07-13T14:44:17;3.92;;;1.75;;
65045;SDS011;54657;52.022;5.534;2023-07-13T14:46:48;2.22;;;2.03;;
65045;SDS011;54657;52.022;5.534;2023-07-13T14:51:50;3.70;;;2.03;;
65045;SDS011;54657;52.022;5.534;2023-07-13T14:54:17;5.90;;;2.10;;
65045;SDS011;54657;52.022;5.534;2023-07-13T14:56:43;5.40;;;2.15;;
65045;SDS011;54657;52.022;5.534;2023-07-13T14:59:08;3.97;;;1.70;;
65045;SDS011;54657;52.022;5.534;2023-07-13T15:01:34;3.47;;;1.80;;
65045;SDS011;54657;52.022;5.534;2023-07-13T15:04:01;4.40;;;1.85;;
65045;SDS011;54657;52.022;5.534;2023-07-13T15:06:28;4.32;;;1.70;;
65045;SDS011;54657;52.022;5.534;2023-07-13T15:08:56;2.70;;;1.65;;
65045;SDS011;54657;52.022;5.534;2023-07-13T15:11:22;3.72;;;1.90;;
65045;SDS011;54657;52.022;5.534;2023-07-13T15:13:48;3.50;;;1.63;;
65045;SDS011;54657;52.022;5.534;2023-07-13T15:16:17;3.08;;;1.80;;
65045;SDS011;54657;52.022;5.534;2023-07-13T15:18:46;2.78;;;1.80;;
65045;SDS011;54657;52.022;5.534;2023-07-13T15:21:14;3.75;;;1.60;;
65045;SDS011;54657;52.022;5.534;2023-07-13T15:23:48;3.30;;;1.70;;
65045;SDS011;54657;52.022;5.534;2023-07-13T15:26:15;3.08;;;1.58;;
65045;SDS011;54657;52.022;5.534;2023-07-13T15:28:42;2.75;;;1.73;;
65045;SDS011;54657;52.022;5.534;2023-07-13T15:31:19;2.53;;;1.77;;
65045;SDS011;54657;52.022;5.534;2023-07-13T15:33:45;2.17;;;1.65;;
65045;SDS011;54657;52.022;5.534;2023-07-13T15:36:13;2.78;;;1.75;;
65045;SDS011;54657;52.022;5.534;2023-07-13T15:38:39;2.85;;;1.85;;
65045;SDS011;54657;52.022;5.534;2023-07-13T15:43:46;2.13;;;1.58;;
65045;SDS011;54657;52.022;5.534;2023-07-13T15:46:12;3.05;;;1.90;;
65045;SDS011;54657;52.022;5.534;2023-07-13T15:48:39;2.70;;;1.75;;
65045;SDS011;54657;52.022;5.534;2023-07-13T15:51:05;1.63;;;1.38;;